sensor_id;sensor_type;location;lat;lon;timestamp;temperature;humidity
12421;DHT22;6275;43.688;1.408;2023-04-03T04:54:56;7.10;99.90
12421;DHT22;6275;43.688;1.408;2023-04-03T04:57:23;7.10;99.90
12421;DHT22;6275;43.688;1.408;2023-04-03T04:59:50;7.00;99.90
12421;DHT22;6275;43.688;1.408;2023-04-03T05:02:17;7.00;99.90
12421;DHT22;6275;43.688;1.408;2023-04-03T05:04:44;7.00;99.90
12421;DHT22;6275;43.688;1.408;2023-04-03T05:07:11;7.00;99.90
12421;DHT22;6275;43.688;1.408;2023-04-03T05:09:38;7.00;99.90
12421;DHT22;6275;43.688;1.408;2023-04-03T05:12:08;6.90;99.90
12421;DHT22;6275;43.688;1.408;2023-04-03T05:14:35;6.90;99.90
12421;DHT22;6275;43.688;1.408;2023-04-03T05:17:02;6.90;99.90
12421;DHT22;6275;43.688;1.408;2023-04-03T05:19:28;6.90;99.90
12421;DHT22;6275;43.688;1.408;2023-04-03T05:21:55;6.90;99.90
12421;DHT22;6275;43.688;1.408;2023-04-03T05:24:22;6.90;99.90
12421;DHT22;6275;43.688;1.408;2023-04-03T05:26:49;6.80;99.90
12421;DHT22;6275;43.688;1.408;2023-04-03T05:29:16;6.80;99.90
12421;DHT22;6275;43.688;1.408;2023-04-03T05:31:43;6.80;99.90
12421;DHT22;6275;43.688;1.408;2023-04-03T05:34:11;6.80;99.90
12421;DHT22;6275;43.688;1.408;2023-04-03T05:36:38;6.80;99.90
12421;DHT22;6275;43.688;1.408;2023-04-03T05:39:05;6.80;99.90
12421;DHT22;6275;43.688;1.408;2023-04-03T05:41:33;6.70;99.90
12421;DHT22;6275;43.688;1.408;2023-04-03T05:44:00;6.80;99.90
12421;DHT22;6275;43.688;1.408;2023-04-03T05:46:27;6.80;99.90
12421;DHT22;6275;43.688;1.408;2023-04-03T05:48:54;6.80;99.90
12421;DHT22;6275;43.688;1.408;2023-04-03T05:51:27;6.70;99.90
12421;DHT22;6275;43.688;1.408;2023-04-03T05:54:22;6.80;99.90
12421;DHT22;6275;43.688;1.408;2023-04-03T05:56:51;6.80;99.90
12421;DHT22;6275;43.688;1.408;2023-04-03T05:59:19;6.70;99.90
12421;DHT22;6275;43.688;1.408;2023-04-03T06:01:47;6.80;99.90
12421;DHT22;6275;43.688;1.408;2023-04-03T06:04:14;6.70;99.90
12421;DHT22;6275;43.688;1.408;2023-04-03T06:09:24;6.70;99.90
12421;DHT22;6275;43.688;1.408;2023-04-03T06:11:52;6.70;99.90
12421;DHT22;6275;43.688;1.408;2023-04-03T06:14:19;6.70;99.90
12421;DHT22;6275;43.688;1.408;2023-04-03T06:16:46;6.80;99.90
12421;DHT22;6275;43.688;1.408;2023-04-03T06:19:13;6.70;99.90
12421;DHT22;6275;43.688;1.408;2023-04-03T06:21:41;6.70;99.90
12421;DHT22;6275;43.688;1.408;2023-04-03T06:24:10;6.60;99.90
12421;DHT22;6275;43.688;1.408;2023-04-03T06:26:39;6.60;99.90
12421;DHT22;6275;43.688;1.408;2023-04-03T06:29:06;6.60;99.90
12421;DHT22;6275;43.688;1.408;2023-04-03T06:31:32;6.60;99.90
12421;DHT22;6275;43.688;1.408;2023-04-03T06:33:59;6.60;99.90
12421;DHT22;6275;43.688;1.408;2023-04-03T06:36:27;6.60;99.90
12421;DHT22;6275;43.688;1.408;2023-04-03T06:38:54;6.60;99.90
12421;DHT22;6275;43.688;1.408;2023-04-03T06:41:21;6.60;99.90
12421;DHT22;6275;43.688;1.408;2023-04-03T06:43:48;6.70;99.90
12421;DHT22;6275;43.688;1.408;2023-04-03T06:46:17;6.70;99.90
12421;DHT22;6275;43.688;1.408;2023-04-03T06:48:45;6.60;99.90
12421;DHT22;6275;43.688;1.408;2023-04-03T06:51:20;6.60;99.90
12421;DHT22;6275;43.688;1.408;2023-04-03T06:53:48;6.60;99.90
12421;DHT22;6275;43.688;1.408;2023-04-03T06:56:15;6.50;99.90
12421;DHT22;6275;43.688;1.408;2023-04-03T06:58:43;6.60;99.90
12421;DHT22;6275;43.688;1.408;2023-04-03T07:01:12;6.70;99.90
12421;DHT22;6275;43.688;1.408;2023-04-03T07:03:40;6.60;99.90
12421;DHT22;6275;43.688;1.408;2023-04-03T07:06:09;6.60;99.90
12421;DHT22;6275;43.688;1.408;2023-04-03T07:08:38;6.60;99.90
12421;DHT22;6275;43.688;1.408;2023-04-03T07:11:05;6.60;99.90
12421;DHT22;6275;43.688;1.408;2023-04-03T07:13:32;6.70;99.90
12421;DHT22;6275;43.688;1.408;2023-04-03T07:16:00;6.70;99.90
12421;DHT22;6275;43.688;1.408;2023-04-03T07:18:27;6.60;99.90
12421;DHT22;6275;43.688;1.408;2023-04-03T07:20:54;6.60;99.90
12421;DHT22;6275;43.688;1.408;2023-04-03T07:23:21;6.60;99.90
12421;DHT22;6275;43.688;1.408;2023-04-03T07:25:49;6.60;99.90
12421;DHT22;6275;43.688;1.408;2023-04-03T07:28:18;6.60;99.90
12421;DHT22;6275;43.688;1.408;2023-04-03T07:30:47;6.70;99.90
12421;DHT22;6275;43.688;1.408;2023-04-03T07:33:15;6.70;99.90
12421;DHT22;6275;43.688;1.408;2023-04-03T07:35:44;6.70;99.90
12421;DHT22;6275;43.688;1.408;2023-04-03T07:38:12;6.70;99.90
12421;DHT22;6275;43.688;1.408;2023-04-03T07:40:39;6.70;99.90
12421;DHT22;6275;43.688;1.408;2023-04-03T07:43:06;6.80;99.90
12421;DHT22;6275;43.688;1.408;2023-04-03T07:45:34;6.90;99.90
12421;DHT22;6275;43.688;1.408;2023-04-03T07:48:03;6.90;99.90
12421;DHT22;6275;43.688;1.408;2023-04-03T07:50:30;6.90;99.90
12421;DHT22;6275;43.688;1.408;2023-04-03T07:52:59;6.80;99.90
12421;DHT22;6275;43.688;1.408;2023-04-03T07:55:26;6.70;99.90
12421;DHT22;6275;43.688;1.408;2023-04-03T07:57:53;6.80;99.90
12421;DHT22;6275;43.688;1.408;2023-04-03T08:00:20;6.80;99.90
12421;DHT22;6275;43.688;1.408;2023-04-03T08:02:47;6.80;99.90
12421;DHT22;6275;43.688;1.408;2023-04-03T08:05:20;7.00;99.90
12421;DHT22;6275;43.688;1.408;2023-04-03T08:07:48;7.00;99.90
12421;DHT22;6275;43.688;1.408;2023-04-03T08:10:15;7.00;99.90
12421;DHT22;6275;43.688;1.408;2023-04-03T08:12:42;7.00;99.90
12421;DHT22;6275;43.688;1.408;2023-04-03T08:15:12;6.90;99.90
12421;DHT22;6275;43.688;1.408;2023-04-03T08:17:39;6.80;99.90
12421;DHT22;6275;43.688;1.408;2023-04-03T08:20:07;6.80;99.90
12421;DHT22;6275;43.688;1.408;2023-04-03T08:22:34;6.90;99.90
12421;DHT22;6275;43.688;1.408;2023-04-03T08:25:01;6.80;99.90
12421;DHT22;6275;43.688;1.408;2023-04-03T08:27:28;6.90;99.90
12421;DHT22;6275;43.688;1.408;2023-04-03T08:29:56;6.80;99.90
12421;DHT22;6275;43.688;1.408;2023-04-03T08:32:24;6.80;99.90
12421;DHT22;6275;43.688;1.408;2023-04-03T08:34:51;6.90;99.90
12421;DHT22;6275;43.688;1.408;2023-04-03T08:37:18;6.80;99.90
12421;DHT22;6275;43.688;1.408;2023-04-03T08:39:45;6.80;99.90
12421;DHT22;6275;43.688;1.408;2023-04-03T08:42:40;6.90;99.90
12421;DHT22;6275;43.688;1.408;2023-04-03T08:45:43;6.80;99.90
12421;DHT22;6275;43.688;1.408;2023-04-03T08:48:25;6.90;99.90
12421;DHT22;6275;43.688;1.408;2023-04-03T08:50:57;6.90;99.90
12421;DHT22;6275;43.688;1.408;2023-04-03T08:53:32;6.90;99.90
12421;DHT22;6275;43.688;1.408;2023-04-03T08:56:05;7.00;99.90
12421;DHT22;6275;43.688;1.408;2023-04-03T08:58:50;7.00;99.90
12421;DHT22;6275;43.688;1.408;2023-04-03T09:03:48;7.00;99.90
12421;DHT22;6275;43.688;1.408;2023-04-03T09:06:29;7.00;99.90
12421;DHT22;6275;43.688;1.408;2023-04-03T09:22:39;7.30;99.90
12421;DHT22;6275;43.688;1.408;2023-04-03T09:27:48;7.80;99.90
12421;DHT22;6275;43.688;1.408;2023-04-03T09:30:17;7.60;99.90
12421;DHT22;6275;43.688;1.408;2023-04-03T09:32:47;7.60;99.90
12421;DHT22;6275;43.688;1.408;2023-04-03T09:35:24;7.60;99.90
12421;DHT22;6275;43.688;1.408;2023-04-03T09:40:40;7.50;99.90
12421;DHT22;6275;43.688;1.408;2023-04-03T09:43:29;7.60;99.90
12421;DHT22;6275;43.688;1.408;2023-04-03T12:31:58;10.20;99.90
12421;DHT22;6275;43.688;1.408;2023-04-03T12:42:48;10.70;99.90
12421;DHT22;6275;43.688;1.408;2023-04-03T12:45:23;10.40;99.90
12421;DHT22;6275;43.688;1.408;2023-04-03T12:47:56;10.30;99.90
12421;DHT22;6275;43.688;1.408;2023-04-03T12:50:31;10.30;99.90
12421;DHT22;6275;43.688;1.408;2023-04-03T12:53:12;11.90;99.90
12421;DHT22;6275;43.688;1.408;2023-04-03T12:55:40;11.50;99.90
12421;DHT22;6275;43.688;1.408;2023-04-03T12:58:21;11.30;99.90
12421;DHT22;6275;43.688;1.408;2023-04-03T13:01:24;11.10;99.90
12421;DHT22;6275;43.688;1.408;2023-04-03T13:03:57;11.50;99.90
12421;DHT22;6275;43.688;1.408;2023-04-03T13:06:32;11.50;99.90
12421;DHT22;6275;43.688;1.408;2023-04-03T13:09:00;11.50;99.90
12421;DHT22;6275;43.688;1.408;2023-04-03T13:11:36;11.10;99.90
12421;DHT22;6275;43.688;1.408;2023-04-03T13:14:19;11.00;99.90
12421;DHT22;6275;43.688;1.408;2023-04-03T13:16:58;11.00;99.90
12421;DHT22;6275;43.688;1.408;2023-04-03T13:19:27;11.20;99.90
12421;DHT22;6275;43.688;1.408;2023-04-03T13:22:07;11.70;99.90
